createdAt,value
2019-02-27T00:00:34.013Z,11.07
2019-02-27T00:03:02.379Z,13.03
2019-02-27T00:05:30.579Z,15.73
2019-02-27T00:07:58.724Z,11.00
2019-02-27T00:10:27.402Z,15.43
2019-02-27T00:12:55.566Z,13.33
2019-02-27T00:15:23.814Z,12.93
2019-02-27T00:17:52.163Z,12.77
2019-02-27T00:20:20.698Z,12.70
2019-02-27T00:22:50.761Z,15.00
2019-02-27T00:25:18.771Z,12.67
2019-02-27T00:27:49.302Z,12.23
2019-02-27T00:30:16.949Z,12.83
2019-02-27T00:32:45.199Z,14.37
2019-02-27T00:35:13.453Z,10.87
2019-02-27T00:37:41.699Z,12.20
2019-02-27T00:40:10.106Z,11.03
2019-02-27T00:42:38.253Z,12.97
2019-02-27T00:45:07.701Z,12.17
2019-02-27T00:47:36.002Z,9.97
2019-02-27T00:50:06.595Z,10.97
2019-02-27T00:52:34.708Z,13.30
2019-02-27T00:55:04.751Z,9.77
2019-02-27T00:57:33.406Z,13.33
2019-02-27T01:00:06.119Z,12.20
2019-02-27T01:02:31.482Z,11.43
2019-02-27T01:04:59.606Z,13.87
2019-02-27T01:07:27.787Z,11.67
2019-02-27T01:09:55.892Z,10.57
2019-02-27T01:12:25.229Z,10.43
2019-02-27T01:14:54.110Z,11.00
2019-02-27T01:17:23.932Z,10.27
2019-02-27T01:19:52.386Z,9.57
2019-02-27T01:22:20.585Z,12.33
2019-02-27T01:24:50.102Z,11.33
2019-02-27T01:27:18.731Z,13.37
2019-02-27T01:29:50.891Z,12.17
2019-02-27T01:32:16.902Z,10.77
2019-02-27T01:34:45.462Z,9.63
2019-02-27T01:37:13.971Z,12.00
2019-02-27T01:39:44.048Z,12.73
2019-02-27T01:42:12.042Z,11.87
2019-02-27T01:44:44.037Z,9.53
2019-02-27T01:47:12.734Z,10.37
2019-02-27T01:49:41.003Z,9.77
2019-02-27T01:52:09.226Z,10.50
2019-02-27T01:54:37.486Z,8.33
2019-02-27T01:57:05.714Z,9.97
2019-02-27T01:59:34.658Z,15.60
2019-02-27T02:02:03.474Z,10.63
2019-02-27T02:04:32.623Z,9.40
2019-02-27T02:07:00.965Z,10.93
2019-02-27T02:09:33.585Z,10.80
2019-02-27T02:12:07.943Z,11.90
2019-02-27T02:15:07.311Z,12.23
2019-02-27T02:18:13.964Z,10.57
2019-02-27T02:21:00.889Z,12.60
2019-02-27T02:24:08.884Z,14.13
2019-02-27T02:27:21.389Z,10.97
2019-02-27T02:30:39.958Z,9.57
2019-02-27T02:33:19.123Z,8.50
2019-02-27T02:36:26.380Z,9.13
2019-02-27T02:39:25.731Z,13.17
2019-02-27T02:42:10.142Z,10.47
2019-02-27T02:44:48.299Z,11.23
2019-02-27T02:47:33.100Z,11.50
2019-02-27T02:50:36.761Z,8.50
2019-02-27T02:53:26.578Z,7.60
2019-02-27T02:56:39.584Z,10.27
2019-02-27T02:59:46.889Z,9.83
2019-02-27T03:02:46.057Z,9.87
2019-02-27T03:05:49.495Z,8.00
2019-02-27T03:08:25.916Z,9.70
2019-02-27T03:11:35.591Z,8.73
2019-02-27T03:14:56.123Z,10.33
2019-02-27T03:18:13.199Z,11.97
2019-02-27T03:21:31.715Z,8.83
2019-02-27T03:24:47.124Z,10.70
2019-02-27T03:27:57.329Z,8.77
2019-02-27T03:31:19.459Z,8.33
2019-02-27T03:34:13.994Z,8.37
2019-02-27T03:37:19.199Z,9.13
2019-02-27T03:40:45.038Z,7.00
2019-02-27T03:43:48.326Z,7.67
2019-02-27T03:47:15.670Z,9.23
2019-02-27T03:50:14.683Z,7.23
2019-02-27T03:53:18.539Z,8.77
2019-02-27T03:56:30.200Z,9.33
2019-02-27T03:59:11.857Z,8.47
2019-02-27T04:02:38.900Z,8.03
2019-02-27T04:05:58.050Z,8.33
2019-02-27T04:08:57.897Z,7.20
2019-02-27T04:11:26.723Z,8.37
2019-02-27T04:13:55.327Z,7.73
2019-02-27T04:16:28.887Z,8.30
2019-02-27T04:18:53.760Z,7.73
2019-02-27T04:21:25.013Z,7.80
2019-02-27T04:23:51.957Z,9.13
2019-02-27T04:26:20.057Z,8.23
2019-02-27T04:28:48.211Z,7.90
2019-02-27T04:31:16.422Z,8.10
2019-02-27T04:33:44.579Z,10.87
2019-02-27T04:36:13.435Z,6.17
2019-02-27T04:38:42.226Z,6.30
2019-02-27T04:41:10.334Z,7.93
2019-02-27T04:43:38.506Z,10.63
2019-02-27T04:46:06.700Z,8.37
2019-02-27T04:48:35.378Z,10.23
2019-02-27T04:51:03.594Z,9.07
2019-02-27T04:53:32.536Z,7.90
2019-02-27T04:56:00.900Z,8.03
2019-02-27T04:58:31.307Z,7.00
2019-02-27T05:00:59.835Z,8.77
2019-02-27T05:03:28.616Z,6.50
2019-02-27T05:05:56.826Z,7.93
2019-02-27T05:08:27.242Z,8.63
2019-02-27T05:10:54.988Z,8.90
2019-02-27T05:13:23.147Z,7.97
2019-02-27T05:15:51.349Z,9.33
2019-02-27T05:18:19.555Z,6.37
2019-02-27T05:20:47.770Z,7.30
2019-02-27T05:23:15.930Z,8.57
2019-02-27T05:25:44.473Z,7.33
2019-02-27T05:28:12.630Z,8.53
2019-02-27T05:30:44.794Z,7.37
2019-02-27T05:33:10.686Z,7.83
2019-02-27T05:35:38.932Z,8.03
2019-02-27T05:38:07.121Z,8.63
2019-02-27T05:40:35.201Z,7.73
2019-02-27T05:43:03.455Z,8.13
2019-02-27T05:45:31.537Z,7.40
2019-02-27T05:47:59.935Z,9.30
2019-02-27T05:50:28.118Z,8.53
2019-02-27T05:52:56.689Z,9.83
2019-02-27T05:55:25.228Z,7.80
2019-02-27T05:57:53.465Z,9.53
2019-02-27T06:00:22.351Z,7.70
2019-02-27T06:02:50.570Z,7.07
2019-02-27T06:05:18.661Z,8.77
2019-02-27T06:07:46.955Z,8.90
2019-02-27T06:10:19.811Z,8.07
2019-02-27T06:12:45.098Z,7.53
2019-02-27T06:15:14.929Z,7.70
2019-02-27T06:17:43.753Z,7.37
2019-02-27T06:20:13.542Z,8.80
2019-02-27T06:22:41.734Z,10.10
2019-02-27T06:25:12.743Z,10.23
2019-02-27T06:27:40.927Z,7.90
2019-02-27T06:30:12.264Z,5.93
2019-02-27T06:32:40.903Z,10.30
2019-02-27T06:35:09.742Z,7.37
2019-02-27T06:37:37.884Z,8.50
2019-02-27T06:40:07.399Z,8.47
2019-02-27T06:42:36.595Z,8.07
2019-02-27T06:45:05.096Z,9.47
2019-02-27T06:47:35.565Z,11.60
2019-02-27T06:50:04.002Z,9.67
2019-02-27T06:52:32.094Z,8.80
2019-02-27T06:55:00.353Z,9.10
2019-02-27T06:57:28.430Z,12.60
2019-02-27T06:59:57.146Z,9.87
2019-02-27T07:02:26.461Z,13.60
2019-02-27T07:04:55.030Z,8.33
2019-02-27T07:07:23.472Z,9.93
2019-02-27T07:09:51.605Z,10.00
2019-02-27T07:12:21.823Z,9.03
2019-02-27T07:14:49.742Z,8.93
2019-02-27T07:17:17.830Z,11.37
2019-02-27T07:19:47.431Z,7.67
2019-02-27T07:22:15.853Z,7.50
2019-02-27T07:24:44.006Z,11.43
2019-02-27T07:27:12.093Z,7.67
2019-02-27T07:29:40.222Z,8.33
2019-02-27T07:32:08.310Z,10.07
2019-02-27T07:34:36.442Z,11.00
2019-02-27T07:37:05.086Z,10.23
2019-02-27T07:39:33.400Z,9.10
2019-02-27T07:42:01.526Z,8.60
2019-02-27T07:44:34.704Z,10.20
2019-02-27T07:47:00.009Z,7.97
2019-02-27T07:49:28.375Z,8.37
2019-02-27T07:51:58.133Z,10.80
2019-02-27T07:54:28.799Z,13.20
2019-02-27T07:56:56.199Z,9.60
2019-02-27T07:59:24.347Z,14.27
2019-02-27T08:01:52.536Z,13.23
2019-02-27T08:04:22.819Z,11.27
2019-02-27T08:06:50.574Z,13.57
2019-02-27T08:09:18.722Z,10.70
2019-02-27T08:11:47.861Z,13.50
2019-02-27T08:14:16.320Z,13.33
2019-02-27T08:16:44.904Z,11.83
2019-02-27T08:19:12.984Z,9.60
2019-02-27T08:21:41.114Z,12.47
2019-02-27T08:24:09.206Z,11.30
2019-02-27T08:26:37.345Z,11.67
2019-02-27T08:29:05.959Z,11.57
2019-02-27T08:31:34.149Z,8.97
2019-02-27T08:34:02.247Z,17.80
2019-02-27T08:36:30.490Z,9.23
2019-02-27T08:38:59.043Z,8.73
2019-02-27T08:41:29.167Z,8.60
2019-02-27T08:43:57.345Z,9.03
2019-02-27T08:46:25.689Z,9.13
2019-02-27T08:48:53.852Z,8.87
2019-02-27T08:51:22.044Z,8.30
2019-02-27T08:53:50.126Z,8.83
2019-02-27T08:56:18.293Z,10.67
2019-02-27T08:58:46.409Z,9.13
2019-02-27T09:01:14.663Z,8.77
2019-02-27T09:03:42.891Z,8.80
2019-02-27T09:06:11.072Z,9.90
2019-02-27T09:08:43.067Z,9.80
2019-02-27T09:11:09.141Z,10.37
2019-02-27T09:13:37.341Z,9.93
2019-02-27T09:16:05.611Z,8.60
2019-02-27T09:18:36.514Z,10.30
2019-02-27T09:21:03.814Z,7.47
2019-02-27T09:23:31.910Z,11.03
2019-02-27T09:26:02.340Z,8.37
2019-02-27T09:28:30.079Z,10.07
2019-02-27T09:31:03.335Z,10.97
2019-02-27T09:33:28.550Z,10.30
2019-02-27T09:35:56.798Z,10.73
2019-02-27T09:38:25.449Z,8.83
2019-02-27T09:40:53.691Z,11.00
2019-02-27T09:43:24.186Z,10.47
2019-02-27T09:45:52.163Z,12.93
2019-02-27T09:48:20.371Z,10.03
2019-02-27T09:50:49.150Z,14.07
2019-02-27T09:53:17.767Z,9.77
2019-02-27T09:55:45.958Z,11.20
2019-02-27T09:58:14.234Z,13.10
2019-02-27T10:00:47.646Z,11.97
2019-02-27T10:03:19.756Z,12.20
2019-02-27T10:05:46.802Z,14.37
2019-02-27T10:08:15.192Z,12.87
2019-02-27T10:10:45.795Z,14.80
2019-02-27T10:13:13.372Z,13.37
2019-02-27T10:15:42.063Z,12.50
2019-02-27T10:18:10.822Z,16.73
2019-02-27T10:20:39.081Z,13.50
2019-02-27T10:23:07.342Z,12.93
2019-02-27T10:25:35.634Z,16.47
2019-02-27T10:28:04.829Z,12.93
2019-02-27T10:30:33.782Z,14.40
2019-02-27T10:33:03.393Z,14.07
2019-02-27T10:35:34.425Z,13.03
2019-02-27T10:38:02.332Z,13.87
2019-02-27T10:40:30.474Z,14.33
2019-02-27T10:42:58.630Z,15.40
2019-02-27T10:45:26.828Z,19.63
2019-02-27T10:47:54.976Z,13.77
2019-02-27T10:50:23.077Z,14.70
2019-02-27T10:52:51.448Z,16.40
2019-02-27T10:55:20.005Z,16.23
2019-02-27T10:57:48.159Z,17.80
2019-02-27T11:00:26.017Z,16.17
2019-02-27T11:02:54.739Z,16.53
2019-02-27T11:05:23.122Z,15.30
2019-02-27T11:07:52.996Z,14.33
2019-02-27T11:10:21.837Z,13.67
2019-02-27T11:12:50.141Z,13.93
2019-02-27T11:15:19.406Z,11.90
2019-02-27T11:17:47.838Z,13.93
2019-02-27T11:20:20.454Z,14.07
2019-02-27T11:22:46.482Z,10.13
2019-02-27T11:25:16.155Z,14.10
2019-02-27T11:27:44.427Z,14.30
2019-02-27T11:30:15.267Z,11.83
2019-02-27T11:32:43.621Z,13.17
2019-02-27T11:35:12.031Z,11.87
2019-02-27T11:37:40.337Z,11.63
2019-02-27T11:40:10.850Z,10.87
2019-02-27T11:42:39.002Z,13.20
2019-02-27T11:45:07.738Z,12.03
2019-02-27T11:47:36.020Z,12.37
2019-02-27T11:50:04.751Z,9.80
2019-02-27T11:52:33.020Z,14.60
2019-02-27T11:55:01.663Z,10.43
2019-02-27T11:57:30.531Z,12.07
2019-02-27T12:00:00.646Z,13.03
2019-02-27T12:02:31.197Z,11.40
2019-02-27T12:04:58.823Z,12.50
2019-02-27T12:07:27.019Z,9.60
2019-02-27T12:09:55.328Z,11.07
2019-02-27T12:12:24.126Z,9.50
2019-02-27T12:14:52.514Z,10.10
2019-02-27T12:17:23.206Z,12.73
2019-02-27T12:19:50.655Z,10.80
2019-02-27T12:22:19.142Z,10.97
2019-02-27T12:24:47.314Z,10.17
2019-02-27T12:27:25.741Z,9.53
2019-02-27T12:29:45.392Z,9.03
2019-02-27T12:32:13.490Z,8.53
2019-02-27T12:34:41.743Z,9.93
2019-02-27T12:37:23.769Z,7.83
2019-02-27T12:39:40.451Z,11.93
2019-02-27T12:42:08.543Z,8.90
2019-02-27T12:44:36.686Z,8.10
2019-02-27T12:47:05.522Z,7.93
2019-02-27T12:49:34.661Z,8.53
2019-02-27T12:52:03.952Z,8.93
2019-02-27T12:54:32.212Z,8.47
2019-02-27T12:57:00.313Z,7.20
2019-02-27T12:59:30.783Z,7.90
2019-02-27T13:02:07.796Z,7.77
2019-02-27T13:04:29.201Z,8.60
2019-02-27T13:06:57.769Z,9.63
2019-02-27T13:09:25.927Z,6.57
2019-02-27T13:11:54.029Z,10.97
2019-02-27T13:14:22.182Z,8.27
2019-02-27T13:16:50.307Z,8.87
2019-02-27T13:19:18.646Z,8.20
2019-02-27T13:21:46.746Z,11.30
2019-02-27T13:24:15.409Z,6.77
2019-02-27T13:26:44.199Z,6.53
2019-02-27T13:29:12.351Z,8.00
2019-02-27T13:31:40.443Z,7.20
2019-02-27T13:34:11.261Z,8.10
2019-02-27T13:36:39.859Z,7.30
2019-02-27T13:39:08.966Z,8.30
2019-02-27T13:41:37.118Z,8.37
2019-02-27T13:44:07.850Z,6.13
2019-02-27T13:46:35.724Z,9.23
2019-02-27T13:49:04.114Z,11.37
2019-02-27T13:51:33.842Z,7.20
2019-02-27T13:54:02.328Z,8.07
2019-02-27T13:56:30.922Z,7.83
2019-02-27T13:58:59.093Z,8.83
2019-02-27T14:01:28.530Z,6.17
2019-02-27T14:03:57.158Z,8.03
2019-02-27T14:06:25.399Z,6.27
2019-02-27T14:08:53.593Z,7.93
2019-02-27T14:11:24.929Z,5.50
2019-02-27T14:13:51.741Z,6.40
2019-02-27T14:16:20.102Z,7.60
2019-02-27T14:18:50.009Z,6.80
2019-02-27T14:21:18.269Z,6.80
2019-02-27T14:23:47.109Z,5.83
2019-02-27T14:26:16.259Z,7.13
2019-02-27T14:28:44.365Z,5.30
2019-02-27T14:31:13.214Z,5.77
2019-02-27T14:33:41.422Z,6.83
2019-02-27T14:36:09.584Z,6.53
2019-02-27T14:38:37.751Z,7.77
2019-02-27T14:41:06.065Z,6.43
2019-02-27T14:43:34.143Z,7.47
2019-02-27T14:46:02.401Z,7.70
2019-02-27T14:48:30.508Z,5.50
2019-02-27T14:50:58.666Z,5.80
2019-02-27T14:53:26.990Z,5.33
2019-02-27T14:55:55.308Z,6.07
2019-02-27T14:58:25.066Z,4.97
2019-02-27T15:00:53.563Z,6.10
2019-02-27T15:03:22.170Z,7.83
2019-02-27T15:05:50.359Z,5.47
2019-02-27T15:08:18.571Z,5.33
2019-02-27T15:10:47.525Z,7.67
2019-02-27T15:13:15.731Z,4.93
2019-02-27T15:15:44.435Z,4.57
2019-02-27T15:18:14.058Z,4.70
2019-02-27T15:20:42.646Z,6.00
2019-02-27T15:23:10.879Z,5.60
2019-02-27T15:25:42.473Z,5.87
2019-02-27T15:28:09.201Z,6.00
2019-02-27T15:30:37.725Z,6.53
2019-02-27T15:33:06.098Z,7.87
2019-02-27T15:35:34.740Z,4.47
2019-02-27T15:38:04.139Z,5.90
2019-02-27T15:40:32.504Z,14.47
2019-02-27T15:43:00.655Z,13.07
2019-02-27T15:45:28.983Z,12.20
2019-02-27T15:47:57.425Z,17.63
2019-02-27T15:50:25.701Z,11.80
2019-02-27T15:52:53.965Z,16.37
2019-02-27T15:55:22.683Z,14.23
2019-02-27T15:57:53.798Z,13.67
2019-02-27T16:00:21.651Z,15.43
2019-02-27T16:02:50.028Z,12.47
2019-02-27T16:05:18.421Z,14.40
2019-02-27T16:07:49.541Z,11.13
2019-02-27T16:10:18.612Z,12.83
2019-02-27T16:12:46.985Z,13.47
2019-02-27T16:15:16.875Z,12.33
2019-02-27T16:17:46.235Z,16.00
2019-02-27T16:20:16.189Z,20.20
2019-02-27T16:22:45.151Z,23.60
2019-02-27T16:25:18.295Z,13.67
2019-02-27T16:27:45.866Z,23.50
2019-02-27T16:30:17.277Z,19.90
2019-02-27T16:32:48.534Z,17.17
2019-02-27T16:35:15.443Z,11.50
2019-02-27T16:37:43.707Z,14.50
2019-02-27T16:40:17.610Z,13.77
2019-02-27T16:42:43.179Z,14.63
2019-02-27T16:45:13.090Z,16.50
2019-02-27T16:47:41.434Z,12.83
2019-02-27T16:50:12.582Z,14.60
2019-02-27T16:52:42.221Z,12.07
2019-02-27T16:55:13.334Z,17.80
2019-02-27T16:57:41.694Z,12.73
2019-02-27T17:00:11.356Z,13.00
2019-02-27T17:02:39.523Z,11.17
2019-02-27T17:05:08.872Z,13.83
2019-02-27T17:07:37.942Z,12.70
2019-02-27T17:10:09.075Z,25.90
2019-02-27T17:12:38.192Z,36.73
2019-02-27T17:15:07.391Z,15.80
2019-02-27T17:17:35.647Z,12.40
2019-02-27T17:20:04.143Z,64.20
2019-02-27T17:22:33.226Z,79.17
2019-02-27T17:25:01.990Z,21.50
2019-02-27T17:27:30.149Z,14.20
2019-02-27T17:30:00.072Z,13.27
2019-02-27T17:32:30.215Z,13.03
2019-02-27T17:34:58.138Z,9.10
2019-02-27T17:37:26.350Z,11.83
2019-02-27T17:39:54.575Z,12.13
2019-02-27T17:42:22.714Z,9.83
2019-02-27T17:44:51.473Z,12.13
2019-02-27T17:47:19.574Z,9.03
2019-02-27T17:49:47.726Z,13.87
2019-02-27T17:52:15.838Z,10.63
2019-02-27T17:54:44.000Z,13.30
2019-02-27T17:57:12.120Z,13.47
2019-02-27T17:59:42.431Z,14.73
2019-02-27T18:02:11.051Z,13.57
2019-02-27T18:04:39.319Z,13.60
2019-02-27T18:07:09.203Z,8.73
2019-02-27T18:09:37.712Z,10.47
2019-02-27T18:12:05.825Z,8.47
2019-02-27T18:14:33.991Z,11.03
2019-02-27T18:17:02.709Z,12.63
2019-02-27T18:19:31.231Z,10.43
2019-02-27T18:21:59.338Z,7.53
2019-02-27T18:24:27.704Z,12.40
2019-02-27T18:26:55.815Z,12.13
2019-02-27T18:29:24.076Z,9.10
2019-02-27T18:31:52.163Z,8.83
2019-02-27T18:34:21.663Z,8.60
2019-02-27T18:36:51.262Z,12.63
2019-02-27T18:39:19.514Z,7.97
2019-02-27T18:41:47.779Z,11.90
2019-02-27T18:44:16.340Z,19.63
2019-02-27T18:46:44.440Z,18.37
2019-02-27T18:49:15.277Z,19.80
2019-02-27T18:51:42.867Z,13.37
2019-02-27T18:54:11.108Z,14.33
2019-02-27T18:56:40.365Z,13.33
2019-02-27T18:59:09.645Z,11.80
2019-02-27T19:01:37.857Z,13.67
2019-02-27T19:04:06.593Z,13.40
2019-02-27T19:06:35.678Z,11.07
2019-02-27T19:09:06.449Z,10.60
2019-02-27T19:11:34.754Z,15.87
2019-02-27T19:14:05.669Z,13.97
2019-02-27T19:16:33.647Z,10.23
2019-02-27T19:19:01.955Z,12.37
2019-02-27T19:21:33.510Z,9.63
2019-02-27T19:24:01.046Z,10.13
2019-02-27T19:26:29.303Z,11.30
2019-02-27T19:28:59.580Z,11.00
2019-02-27T19:31:27.521Z,13.37
2019-02-27T19:33:55.714Z,8.50
2019-02-27T19:36:23.982Z,10.10
2019-02-27T19:38:52.599Z,9.07
2019-02-27T19:41:21.011Z,9.13
2019-02-27T19:43:49.165Z,9.47
2019-02-27T19:46:17.419Z,11.93
2019-02-27T19:48:45.615Z,10.00
2019-02-27T19:51:13.873Z,10.43
2019-02-27T19:53:42.777Z,10.03
2019-02-27T19:56:11.530Z,9.10
2019-02-27T19:58:39.730Z,9.40
2019-02-27T20:01:09.082Z,10.50
2019-02-27T20:03:38.303Z,8.40
2019-02-27T20:06:06.752Z,12.83
2019-02-27T20:08:34.857Z,11.60
2019-02-27T20:11:05.968Z,10.03
2019-02-27T20:13:34.143Z,8.17
2019-02-27T20:16:02.389Z,9.80
2019-02-27T20:18:30.677Z,9.67
2019-02-27T20:20:59.137Z,10.00
2019-02-27T20:23:27.686Z,12.67
2019-02-27T20:25:56.190Z,9.87
2019-02-27T20:28:24.687Z,9.97
2019-02-27T20:30:53.046Z,12.97
2019-02-27T20:33:22.533Z,10.37
2019-02-27T20:35:52.298Z,9.73
2019-02-27T20:38:21.026Z,12.90
2019-02-27T20:40:52.679Z,13.10
2019-02-27T20:43:21.278Z,11.77
2019-02-27T20:45:49.381Z,10.87
2019-02-27T20:48:17.607Z,11.10
2019-02-27T20:50:46.864Z,9.67
2019-02-27T20:53:15.314Z,10.57
2019-02-27T20:55:43.630Z,12.73
2019-02-27T20:58:16.379Z,11.73
2019-02-27T21:00:42.248Z,10.03
2019-02-27T21:03:10.389Z,10.23
2019-02-27T21:05:41.014Z,10.97
2019-02-27T21:08:09.083Z,10.23
2019-02-27T21:10:37.483Z,12.80
2019-02-27T21:13:06.041Z,11.07
2019-02-27T21:15:34.180Z,10.10
2019-02-27T21:18:02.934Z,11.20
2019-02-27T21:20:33.142Z,11.50
2019-02-27T21:23:01.313Z,11.87
2019-02-27T21:25:29.582Z,10.53
2019-02-27T21:28:07.600Z,9.73
2019-02-27T21:30:37.051Z,9.77
2019-02-27T21:33:12.005Z,10.07
2019-02-27T21:35:41.497Z,9.03
2019-02-27T21:38:18.724Z,11.33
2019-02-27T21:40:48.623Z,8.77
2019-02-27T21:43:27.150Z,11.93
2019-02-27T21:46:03.734Z,13.90
2019-02-27T21:48:36.618Z,10.07
2019-02-27T21:51:05.038Z,11.97
2019-02-27T21:53:35.626Z,18.00
2019-02-27T21:56:10.238Z,10.33
2019-02-27T21:58:40.511Z,10.87
2019-02-27T22:01:12.890Z,12.67
2019-02-27T22:03:45.012Z,10.57
2019-02-27T22:06:16.921Z,10.33
2019-02-27T22:08:47.154Z,11.50
2019-02-27T22:11:15.386Z,10.20
2019-02-27T22:14:04.586Z,12.67
2019-02-27T22:16:33.175Z,10.57
2019-02-27T22:19:03.322Z,11.23
2019-02-27T22:21:36.014Z,12.37
2019-02-27T22:24:07.838Z,13.50
2019-02-27T22:26:39.810Z,9.90
2019-02-27T22:29:10.137Z,9.87
2019-02-27T22:31:42.692Z,10.70
2019-02-27T22:34:17.318Z,9.83
2019-02-27T22:36:45.423Z,12.33
2019-02-27T22:39:16.677Z,12.80
2019-02-27T22:41:48.166Z,11.67
2019-02-27T22:44:16.437Z,13.53
2019-02-27T22:46:47.743Z,10.03
2019-02-27T22:49:14.626Z,12.33
2019-02-27T22:51:45.239Z,12.47
2019-02-27T22:54:13.030Z,12.40
2019-02-27T22:56:41.133Z,13.97
2019-02-27T22:59:09.298Z,13.37
2019-02-27T23:01:50.715Z,13.87
2019-02-27T23:04:17.643Z,13.17
2019-02-27T23:06:47.258Z,12.03
2019-02-27T23:09:18.474Z,12.37
2019-02-27T23:11:46.701Z,14.27
2019-02-27T23:14:18.886Z,12.20
2019-02-27T23:16:46.907Z,11.93
2019-02-27T23:19:15.496Z,10.87
2019-02-27T23:21:43.785Z,10.37
2019-02-27T23:24:12.046Z,11.20
2019-02-27T23:26:40.167Z,13.43
2019-02-27T23:29:08.430Z,11.20
2019-02-27T23:31:36.660Z,10.13
2019-02-27T23:34:07.877Z,15.80
2019-02-27T23:36:34.998Z,16.47
2019-02-27T23:39:08.483Z,14.53
2019-02-27T23:41:35.682Z,14.13
2019-02-27T23:44:05.408Z,14.80
2019-02-27T23:46:34.305Z,12.07
2019-02-27T23:49:02.565Z,11.67
2019-02-27T23:51:30.829Z,13.40
2019-02-27T23:54:01.371Z,14.00
2019-02-27T23:56:29.114Z,11.47
2019-02-27T23:59:02.013Z,13.67
